METAR Data
IDs: Format: Raw Decoded Include TAF

Data at: 2233 UTC 23 Apr 2019

KHOB 232150Z 03008KT 10SM BKN047 21/09 A3001
KHOB 232050Z 05011KT 10SM SCT030 BKN041 19/11 A3003
KHOB 231950Z 02008KT 10SM BKN030 BKN038 18/11 A3005
KHOB 231850Z 03007KT 10SM OVC023 16/11 A3007
KHOB 231750Z 03011KT 10SM OVC018 16/11 A3009
KHOB 231650Z 03011KT 10SM OVC014 15/11 A3009
KHOB 231550Z 04010G16KT 10SM OVC011 14/11 A3009
KHOB 231450Z 02015KT 10SM OVC009 13/11 A3008
KHOB 231350Z 02014KT 10SM OVC007 12/11 A3007
KHOB 231250Z 01012KT 10SM OVC007 12/11 A3006
KHOB 231150Z 02012KT 10SM BKN007 12/11 A3003
KHOB 231135Z AUTO 03012KT 10SM BKN008 OVC060 12/11 A3003 RMK AO2 LTG DSNT NE AND SE
KHOB 231115Z AUTO 03014G23KT 10SM BKN007 BKN011 BKN060 12/11 A3002 RMK AO2 LTG DSNT E AND SE
KHOB 231055Z AUTO 02017KT 10SM SCT008 BKN012 BKN035 12/11 A3001 RMK AO2 LTG DSNT E-S P0020
KHOB 231035Z AUTO 01013KT 10SM FEW007 SCT035 BKN070 12/11 A3004 RMK AO2 LTG DSNT NE-S
KHOB 231015Z AUTO 01012KT 3SM RA FEW004 BKN011 OVC070 12/11 A3004 RMK AO2 LTG DSNT ALQDS
KHOB 230955Z AUTO 33014KT 9SM VCTS RA SCT010 OVC038 12/11 A3004 RMK AO2 LTG DSNT ALQDS P0001
KHOB 230935Z AUTO 36009KT 10SM BKN038 OVC044 12/11 A3003 RMK AO2 LTG DSNT ALQDS
KHOB 230915Z AUTO 35006KT 10SM SCT039 OVC044 12/11 A3004 RMK AO2
KHOB 230855Z AUTO 36008KT 10SM SCT026 BKN042 OVC070 12/10 A3003 RMK AO2
KHOB 230835Z AUTO 01008KT 10SM OVC025 12/11 A3003 RMK AO2 LTG DSNT N AND NE
KHOB 230815Z AUTO 05007KT 10SM OVC024 12/11 A3004 RMK AO2
KHOB 230755Z AUTO 04009KT 10SM VCTS BKN024 BKN029 OVC070 12/11 A3003 RMK AO2 LTG DSNT W-NE
KHOB 230735Z AUTO 02009KT 10SM FEW020 SCT027 OVC075 12/11 A3004 RMK AO2 LTG DSNT N AND NE
KHOB 230715Z AUTO 01012KT 10SM VCTS FEW008 SCT012 BKN019 13/11 A3005 RMK AO2 LTG DSNT N-E
KHOB 230655Z AUTO 35012G22KT 7SM VCTS RA BKN006 OVC010 13/11 A3005 RMK AO2 LTG DSNT ALQDS P0005
KHOB 230635Z AUTO 36011KT 7SM -DZ OVC006 14/13 A3007 RMK AO2 LTG DSNT ALQDS
KHOB 230615Z AUTO 06008G14KT 6SM VCTS RA BKN006 BKN040 OVC070 14/13 A3005 RMK AO2 LTG DSNT ALQDS
KHOB 230555Z AUTO 05015KT 5SM -RA FEW043 SCT055 OVC070 14/13 A3003 RMK AO2 LTG DSNT ALQDS P0009
KHOB 230535Z AUTO 07013KT 6SM VCTS RA SCT008 BKN020 OVC070 14/13 A3005 RMK AO2 LTG DSNT ALQDS
KHOB 230515Z AUTO 06011G18KT 7SM VCTS RA BKN009 OVC019 14/13 A3005 RMK AO2 LTG DSNT ALQDS
KHOB 230455Z AUTO 06013KT 10SM VCTS RA BKN010 OVC019 14/12 A3005 RMK AO2 LTG DSNT ALQDS
KHOB 230435Z AUTO 05014G21KT 10SM BKN010 OVC021 15/12 A3005 RMK AO2 LTG DSNT ALQDS
KHOB 230415Z AUTO 05015G21KT 10SM BKN011 OVC022 15/12 A3004 RMK AO2 LTG DSNT S-NW
KHOB 230355Z AUTO 05013G19KT 10SM SCT012 BKN033 OVC110 14/12 A3003 RMK AO2 LTG DSNT S-W
KHOB 230335Z AUTO 05013G22KT 10SM FEW012 SCT025 OVC032 14/12 A3001 RMK AO2 LTG DSNT S AND SW
KHOB 230315Z AUTO 05014G21KT 10SM FEW014 OVC033 15/12 A3002 RMK AO2
KHOB 230255Z AUTO 06013G22KT 10SM OVC035 15/12 A3004 RMK AO2
KHOB 230235Z AUTO 06016G24KT 10SM BKN029 BKN035 OVC044 16/12 A3003 RMK AO2
KHOB 230215Z AUTO 06017G25KT 10SM BKN029 OVC034 16/12 A3002 RMK AO2
KHOB 230155Z AUTO 06022KT 10SM SCT017 SCT024 OVC029 16/12 A3002 RMK AO2
KHOB 230135Z AUTO 06019G27KT 10SM SCT018 SCT023 BKN029 17/12 A3002 RMK AO2
KHOB 230115Z AUTO 07018G23KT 10SM FEW020 FEW120 17/12 A3001 RMK AO2
KHOB 230055Z AUTO 07013G22KT 10SM FEW021 18/13 A3001 RMK AO2
KHOB 230035Z AUTO 06018KT 10SM FEW027 FEW034 BKN120 19/13 A3000 RMK AO2
KHOB 230015Z AUTO 06017G24KT 10SM BKN029 BKN034 BKN120 19/12 A3000 RMK AO2
KHOB 222350Z 06013G19KT 10SM BKN028 21/13 A3000
KHOB 222250Z 04014KT 10SM BKN029 BKN045 BKN110 20/11 A3002
KHOB 222150Z 02016KT 10SM FEW110 21/10 A3001
KHOB 222050Z 02008KT 10SM FEW120 20/10 A3004
KHOB 221950Z 01010G17KT 10SM FEW120 20/09 A3005
KHOB 221850Z 01014KT 10SM SCT025 20/09 A3003
KHOB 221750Z 03009G17KT 10SM CLR 19/08 A3006
KHOB 221650Z 01012G18KT 10SM CLR 19/08 A3003
KHOB 221550Z 05010KT 10SM CLR 20/12 A3000
KHOB 221450Z 06007KT 10SM CLR 17/12 A3001
KHOB 221350Z 13003KT 10SM CLR 15/12 A2999
KHOB 221250Z 11005KT 10SM CLR 13/11 A2998
KHOB 221150Z 17003KT 10SM CLR 14/12 A2994
KHOB 221135Z AUTO 21003KT 10SM CLR 14/12 A2994 RMK AO2
KHOB 221115Z AUTO 00000KT 10SM CLR 14/12 A2994 RMK AO2
KHOB 221055Z AUTO 22004KT 10SM CLR 14/12 A2994 RMK AO2
KHOB 221035Z AUTO 26003KT 10SM CLR 14/12 A2994 RMK AO2